Time,TemperatureF,DewpointF,PressureIn,WindDirection,WindDirectionDegrees,WindSpeedMPH,WindSpeedGustMPH,Humidity,HourlyPrecipIn,Conditions,Clouds,dailyrainin,SoftwareType,DateUTC
2013-03-16 00:00:00,55.1,25.8,29.54,SW,234,2.0,6.0,32,0.00,,---,0.00,VWS V14.00,2013-03-16 06:00:00,
2013-03-16 00:05:00,55.6,26.2,29.54,SW,234,0.0,11.0,32,0.00,,---,0.00,VWS V14.00,2013-03-16 06:05:00,
2013-03-16 00:10:00,55.9,24.9,29.54,SW,227,5.0,11.0,30,0.00,,---,0.00,VWS V14.00,2013-03-16 06:10:00,
2013-03-16 00:15:00,55.9,24.9,29.52,West,261,3.0,8.0,30,0.00,,---,0.00,VWS V14.00,2013-03-16 06:15:00,
2013-03-16 00:20:00,55.7,24.8,29.52,WSW,244,7.0,10.0,30,0.00,,---,0.00,VWS V14.00,2013-03-16 06:20:00,
2013-03-16 00:25:00,55.7,25.5,29.52,SSW,196,10.0,13.0,31,0.00,,---,0.00,VWS V14.00,2013-03-16 06:25:00,
2013-03-16 00:30:00,55.7,25.5,29.52,SSW,208,5.0,12.0,31,0.00,,---,0.00,VWS V14.00,2013-03-16 06:30:00,
2013-03-16 00:35:00,55.9,25.7,29.52,SSW,205,3.0,12.0,31,0.00,,---,0.00,VWS V14.00,2013-03-16 06:35:00,
2013-03-16 00:40:00,55.9,25.7,29.52,SSW,213,5.0,13.0,31,0.00,,---,0.00,VWS V14.00,2013-03-16 06:40:00,
2013-03-16 00:45:00,55.7,25.5,29.53,SW,217,3.0,11.0,31,0.00,,---,0.00,VWS V14.00,2013-03-16 06:45:00,
2013-03-16 00:50:00,55.4,26.0,29.53,SW,229,5.0,9.0,32,0.00,,---,0.00,VWS V14.00,2013-03-16 06:50:00,
2013-03-16 00:55:00,55.3,26.0,29.53,SSW,213,1.0,8.0,32,0.00,,---,0.00,VWS V14.00,2013-03-16 06:55:00,
2013-03-16 01:00:00,55.4,26.0,29.53,SW,223,0.0,13.0,32,0.00,,---,0.00,VWS V14.00,2013-03-16 07:00:00,
2013-03-16 01:05:00,55.6,26.2,29.53,SW,233,2.0,11.0,32,0.00,,---,0.00,VWS V14.00,2013-03-16 07:05:00,
2013-03-16 01:10:00,55.9,25.7,29.53,WSW,248,5.0,17.0,31,0.00,,---,0.00,VWS V14.00,2013-03-16 07:10:00,
2013-03-16 01:15:00,56.5,25.5,29.54,West,260,7.0,12.0,30,0.00,,---,0.00,VWS V14.00,2013-03-16 07:15:00,
2013-03-16 01:20:00,56.5,25.5,29.54,SW,230,1.0,8.0,30,0.00,,---,0.00,VWS V14.00,2013-03-16 07:20:00,
2013-03-16 01:25:00,56.0,25.8,29.54,SW,224,5.0,6.0,31,0.00,,---,0.00,VWS V14.00,2013-03-16 07:25:00,
2013-03-16 01:30:00,55.9,25.7,29.56,SW,230,2.0,10.0,31,0.00,,---,0.00,VWS V14.00,2013-03-16 07:30:00,
2013-03-16 01:45:00,54.5,26.7,29.57,South,191,0.0,0.0,34,0.00,,---,0.00,VWS V14.00,2013-03-16 07:45:00,
2013-03-16 01:50:00,53.8,26.8,29.57,NNE,13,1.0,3.0,35,0.00,,---,0.00,VWS V14.00,2013-03-16 07:50:00,
2013-03-16 02:05:00,52.9,27.4,29.58,NNE,24,2.0,3.0,37,0.00,,---,0.00,VWS V14.00,2013-03-16 08:05:00,
2013-03-16 02:10:00,52.2,27.4,29.58,NNE,27,0.0,5.0,38,0.00,,---,0.00,VWS V14.00,2013-03-16 08:10:00,
2013-03-16 02:20:00,51.1,27.6,29.61,NNE,28,0.0,0.0,40,0.00,,---,0.00,VWS V14.00,2013-03-16 08:20:00,
2013-03-16 02:30:00,49.6,26.9,29.62,NNE,28,0.0,0.0,41,0.00,,---,0.00,VWS V14.00,2013-03-16 08:30:00,
2013-03-16 02:34:00,55.6,25.5,29.56,South,191,0.0,3.0,31,0.00,,---,0.00,VWS V14.00,2013-03-16 08:34:00,
2013-03-16 02:39:00,55.0,26.5,29.56,South,191,0.0,0.0,33,0.00,,---,0.00,VWS V14.00,2013-03-16 08:39:00,
2013-03-16 02:50:00,49.1,27.6,29.63,NNE,27,0.0,0.0,43,0.00,,---,0.00,VWS V14.00,2013-03-16 08:50:00,
2013-03-16 02:54:00,53.3,27.0,29.57,NNE,17,0.0,2.0,36,0.00,,---,0.00,VWS V14.00,2013-03-16 08:54:00,
2013-03-16 02:59:00,52.8,27.3,29.58,NNE,16,0.0,2.0,37,0.00,,---,0.00,VWS V14.00,2013-03-16 08:59:00,
2013-03-16 03:00:00,46.8,27.6,29.65,NNE,27,0.0,0.0,47,0.00,,---,0.00,VWS V14.00,2013-03-16 09:00:00,
2013-03-16 03:10:00,44.9,27.9,29.65,NNE,27,0.0,0.0,51,0.00,,---,0.00,VWS V14.00,2013-03-16 09:10:00,
2013-03-16 03:14:00,50.8,28.0,29.61,NNE,28,0.0,1.0,41,0.00,,---,0.00,VWS V14.00,2013-03-16 09:14:00,
2013-03-16 03:15:00,45.4,27.9,29.67,NNE,27,0.0,0.0,50,0.00,,---,0.00,VWS V14.00,2013-03-16 09:15:00,
2013-03-16 03:24:00,50.8,27.4,29.61,NNE,28,0.0,0.0,40,0.00,,---,0.00,VWS V14.00,2013-03-16 09:24:00,
2013-03-16 03:34:00,49.2,28.2,29.62,NNE,28,0.0,0.0,44,0.00,,---,0.00,VWS V14.00,2013-03-16 09:34:00,
2013-03-16 03:39:00,49.2,27.7,29.62,NNE,28,0.0,0.0,43,0.00,,---,0.00,VWS V14.00,2013-03-16 09:39:00,
2013-03-16 03:44:00,49.5,26.8,29.63,NNE,27,0.0,1.0,41,0.00,,---,0.00,VWS V14.00,2013-03-16 09:44:00,
2013-03-16 03:54:00,48.8,27.3,29.63,NNE,27,0.0,0.0,43,0.00,,---,0.00,VWS V14.00,2013-03-16 09:54:00,
2013-03-16 04:04:00,46.0,28.4,29.65,NNE,27,0.0,0.0,50,0.00,,---,0.00,VWS V14.00,2013-03-16 10:04:00,
2013-03-16 04:19:00,45.4,28.4,29.67,NNE,18,0.0,0.0,51,0.00,,---,0.00,VWS V14.00,2013-03-16 10:19:00,
2013-03-16 04:20:00,44.5,29.8,29.67,NNW,336,0.0,0.0,56,0.00,,---,0.00,VWS V14.00,2013-03-16 10:20:00,
2013-03-16 04:24:00,45.5,28.4,29.67,NNE,18,0.0,0.0,51,0.00,,---,0.00,VWS V14.00,2013-03-16 10:24:00,
2013-03-16 04:29:00,45.5,28.4,29.66,NNE,18,0.0,0.0,51,0.00,,---,0.00,VWS V14.00,2013-03-16 10:29:00,
2013-03-16 04:34:00,45.7,28.6,29.66,North,0,0.0,1.0,51,0.00,,---,0.00,VWS V14.00,2013-03-16 10:34:00,
2013-03-16 04:35:00,42.6,28.9,29.68,NNW,346,1.0,1.0,58,0.00,,---,0.00,VWS V14.00,2013-03-16 10:35:00,
2013-03-16 04:39:00,44.9,28.8,29.66,North,0,0.0,1.0,53,0.00,,---,0.00,VWS V14.00,2013-03-16 10:39:00,
2013-03-16 04:44:00,44.9,29.3,29.66,NNW,336,0.0,0.0,54,0.00,,---,0.00,VWS V14.00,2013-03-16 10:44:00,
2013-03-16 04:49:00,45.1,29.0,29.66,NNW,336,0.0,0.0,53,0.00,,---,0.00,VWS V14.00,2013-03-16 10:49:00,
2013-03-16 04:50:00,44.3,28.3,29.68,North,0,2.0,3.0,53,0.00,,---,0.00,VWS V14.00,2013-03-16 10:50:00,
2013-03-16 04:54:00,45.4,29.3,29.66,NNW,336,0.0,0.0,53,0.00,,---,0.00,VWS V14.00,2013-03-16 10:54:00,
2013-03-16 04:55:00,44.3,28.3,29.68,North,0,0.0,5.0,53,0.00,,---,0.00,VWS V14.00,2013-03-16 10:55:00,
2013-03-16 04:59:00,45.2,29.1,29.66,NNW,336,0.0,0.0,53,0.00,,---,0.00,VWS V14.00,2013-03-16 10:59:00,
2013-03-16 05:04:00,45.4,29.3,29.66,NNW,336,0.0,0.0,53,0.00,,---,0.00,VWS V14.00,2013-03-16 11:04:00,
2013-03-16 05:05:00,44.1,28.1,29.69,North,359,1.0,3.0,53,0.00,,---,0.00,VWS V14.00,2013-03-16 11:05:00,
2013-03-16 05:09:00,45.2,29.1,29.66,NNW,336,0.0,0.0,53,0.00,,---,0.00,VWS V14.00,2013-03-16 11:09:00,
2013-03-16 05:14:00,45.1,29.5,29.67,NNW,336,0.0,0.0,54,0.00,,---,0.00,VWS V14.00,2013-03-16 11:14:00,
2013-03-16 05:24:00,44.1,29.4,29.67,NNW,336,0.0,0.0,56,0.00,,---,0.00,VWS V14.00,2013-03-16 11:24:00,
2013-03-16 05:25:00,42.5,28.4,29.71,North,1,1.0,7.0,57,0.00,,---,0.00,VWS V14.00,2013-03-16 11:25:00,
2013-03-16 05:29:00,43.9,29.7,29.68,NNW,336,0.0,0.0,57,0.00,,---,0.00,VWS V14.00,2013-03-16 11:29:00,
2013-03-16 05:39:00,44.5,29.4,29.68,North,3,1.0,5.0,55,0.00,,---,0.00,VWS V14.00,2013-03-16 11:39:00,
2013-03-16 05:40:00,41.8,28.5,29.73,North,0,0.0,7.0,59,0.00,,---,0.00,VWS V14.00,2013-03-16 11:40:00,
2013-03-16 05:44:00,44.5,28.5,29.68,North,350,1.0,3.0,53,0.00,,---,0.00,VWS V14.00,2013-03-16 11:44:00,
2013-03-16 05:50:00,41.3,28.5,29.73,NNE,16,0.0,6.0,60,0.00,,---,0.00,VWS V14.00,2013-03-16 11:50:00,
2013-03-16 05:55:00,40.9,28.5,29.73,North,0,0.0,6.0,61,0.00,,---,0.00,VWS V14.00,2013-03-16 11:55:00,
2013-03-16 05:59:00,44.2,28.2,29.69,North,354,1.0,7.0,53,0.00,,---,0.00,VWS V14.00,2013-03-16 11:59:00,
2013-03-16 06:09:00,43.9,28.4,29.69,North,0,4.0,6.0,54,0.00,,---,0.00,VWS V14.00,2013-03-16 12:09:00,
2013-03-16 06:10:00,39.9,28.0,29.74,North,0,2.0,5.0,62,0.00,,---,0.00,VWS V14.00,2013-03-16 12:10:00,
2013-03-16 06:15:00,39.8,28.2,29.77,North,0,0.0,4.0,63,0.00,,---,0.00,VWS V14.00,2013-03-16 12:15:00,
2013-03-16 06:19:00,42.9,28.3,29.71,North,0,2.0,6.0,56,0.00,,---,0.00,VWS V14.00,2013-03-16 12:19:00,
2013-03-16 06:25:00,39.3,28.5,29.77,North,0,0.0,3.0,65,0.00,,---,0.00,VWS V14.00,2013-03-16 12:25:00,
2013-03-16 06:29:00,42.2,28.5,29.73,NNW,342,3.0,6.0,58,0.00,,---,0.00,VWS V14.00,2013-03-16 12:29:00,
2013-03-16 06:34:00,42.1,28.8,29.73,North,0,2.0,10.0,59,0.00,,---,0.00,VWS V14.00,2013-03-16 12:34:00,
2013-03-16 06:35:00,39.2,29.2,29.77,North,359,0.0,5.0,67,0.00,,---,0.00,VWS V14.00,2013-03-16 12:35:00,
2013-03-16 06:44:00,41.5,28.3,29.73,North,349,1.0,7.0,59,0.00,,---,0.00,VWS V14.00,2013-03-16 12:44:00,
2013-03-16 06:45:00,39.3,29.6,29.78,North,11,0.0,3.0,68,0.00,,---,0.00,VWS V14.00,2013-03-16 12:45:00,
2013-03-16 06:50:00,39.3,29.6,29.78,North,3,0.0,3.0,68,0.00,,---,0.00,VWS V14.00,2013-03-16 12:50:00,
2013-03-16 06:59:00,40.6,28.2,29.74,North,0,2.0,7.0,61,0.00,,---,0.00,VWS V14.00,2013-03-16 12:59:00,
2013-03-16 07:04:00,40.2,28.2,29.74,North,0,2.0,6.0,62,0.00,,---,0.00,VWS V14.00,2013-03-16 13:04:00,
2013-03-16 07:10:00,39.6,29.9,29.79,North,359,0.0,1.0,68,0.00,,---,0.00,VWS V14.00,2013-03-16 13:10:00,
2013-03-16 07:19:00,39.6,28.4,29.77,NE,42,1.0,3.0,64,0.00,,---,0.00,VWS V14.00,2013-03-16 13:19:00,
2013-03-16 07:29:00,39.2,28.8,29.77,North,0,0.0,5.0,66,0.00,,---,0.00,VWS V14.00,2013-03-16 13:29:00,
2013-03-16 07:39:00,39.2,29.2,29.77,NNE,18,0.0,5.0,67,0.00,,---,0.00,VWS V14.00,2013-03-16 13:39:00,
2013-03-16 07:54:00,39.3,29.6,29.78,North,0,0.0,3.0,68,0.00,,---,0.00,VWS V14.00,2013-03-16 13:54:00,
2013-03-16 07:59:00,39.3,29.6,29.79,North,0,0.0,2.0,68,0.00,,---,0.00,VWS V14.00,2013-03-16 13:59:00,
2013-03-16 08:14:00,39.8,30.1,29.79,North,0,0.0,1.0,68,0.00,,---,0.00,VWS V14.00,2013-03-16 14:14:00,
2013-03-16 08:19:00,39.9,30.2,29.79,North,0,0.0,2.0,68,0.00,,---,0.00,VWS V14.00,2013-03-16 14:19:00,
2013-03-16 08:24:00,40.2,30.5,29.79,NNW,330,0.0,2.0,68,0.00,,---,0.00,VWS V14.00,2013-03-16 14:24:00,
2013-03-16 08:29:00,40.3,30.2,29.79,NNW,332,0.0,0.0,67,0.00,,---,0.00,VWS V14.00,2013-03-16 14:29:00,
2013-03-16 08:34:00,40.5,30.4,29.79,North,11,1.0,2.0,67,0.00,,---,0.00,VWS V14.00,2013-03-16 14:34:00,
2013-03-16 08:39:00,40.5,30.0,29.79,North,7,0.0,1.0,66,0.00,,---,0.00,VWS V14.00,2013-03-16 14:39:00,
2013-03-16 08:44:00,40.8,30.0,29.78,North,0,0.0,3.0,65,0.00,,---,0.00,VWS V14.00,2013-03-16 14:44:00,
2013-03-16 08:49:00,41.1,30.2,29.78,NNE,13,0.0,3.0,65,0.00,,---,0.00,VWS V14.00,2013-03-16 14:49:00,
2013-03-16 08:54:00,41.3,30.4,29.78,West,271,1.0,5.0,65,0.00,,---,0.00,VWS V14.00,2013-03-16 14:54:00,
2013-03-16 09:04:00,41.1,29.5,29.78,North,0,1.0,6.0,63,0.00,,---,0.00,VWS V14.00,2013-03-16 15:04:00,
2013-03-16 09:09:00,41.3,29.7,29.78,NNE,17,0.0,4.0,63,0.00,,---,0.00,VWS V14.00,2013-03-16 15:09:00,
2013-03-16 09:14:00,41.5,29.5,29.80,NNW,347,0.0,3.0,62,0.00,,---,0.00,VWS V14.00,2013-03-16 15:14:00,
2013-03-16 09:24:00,41.6,29.6,29.80,SSW,195,1.0,3.0,62,0.00,,---,0.00,VWS V14.00,2013-03-16 15:24:00,
2013-03-16 09:29:00,41.5,29.5,29.79,North,1,1.0,3.0,62,0.00,,---,0.00,VWS V14.00,2013-03-16 15:29:00,
2013-03-16 09:34:00,41.6,29.6,29.79,North,352,0.0,5.0,62,0.00,,---,0.00,VWS V14.00,2013-03-16 15:34:00,
2013-03-16 09:39:00,41.8,29.8,29.79,North,357,1.0,4.0,62,0.00,,---,0.00,VWS V14.00,2013-03-16 15:39:00,
2013-03-16 09:44:00,41.8,29.4,29.79,NNE,21,2.0,7.0,61,0.00,,---,0.00,VWS V14.00,2013-03-16 15:44:00,
2013-03-16 09:49:00,41.8,29.4,29.79,North,11,5.0,6.0,61,0.00,,---,0.00,VWS V14.00,2013-03-16 15:49:00,
2013-03-16 09:54:00,41.9,29.5,29.79,North,7,5.0,10.0,61,0.00,,---,0.00,VWS V14.00,2013-03-16 15:54:00,
2013-03-16 09:59:00,42.1,29.6,29.79,North,0,1.0,7.0,61,0.00,,---,0.00,VWS V14.00,2013-03-16 15:59:00,
2013-03-16 10:04:00,41.9,29.0,29.79,North,352,3.0,9.0,60,0.00,,---,0.00,VWS V14.00,2013-03-16 16:04:00,
2013-03-16 10:14:00,42.6,29.7,29.82,North,350,6.0,8.0,60,0.00,,---,0.00,VWS V14.00,2013-03-16 16:14:00,
2013-03-16 10:19:00,42.6,29.7,29.82,NNE,13,3.0,11.0,60,0.00,,---,0.00,VWS V14.00,2013-03-16 16:19:00,
2013-03-16 10:29:00,42.5,29.6,29.82,North,359,0.0,10.0,60,0.00,,---,0.00,VWS V14.00,2013-03-16 16:29:00,
2013-03-16 10:34:00,42.9,29.6,29.82,NNW,343,5.0,9.0,59,0.00,,---,0.00,VWS V14.00,2013-03-16 16:34:00,
2013-03-16 10:44:00,43.3,30.0,29.82,North,0,2.0,9.0,59,0.00,,---,0.00,VWS V14.00,2013-03-16 16:44:00,
2013-03-16 10:49:00,43.2,29.0,29.82,NNE,28,2.0,8.0,57,0.00,,---,0.00,VWS V14.00,2013-03-16 16:49:00,
2013-03-16 10:54:00,43.5,29.7,29.82,North,0,4.0,6.0,58,0.00,,---,0.00,VWS V14.00,2013-03-16 16:54:00,
2013-03-16 10:59:00,43.2,29.0,29.82,North,359,0.0,8.0,57,0.00,,---,0.00,VWS V14.00,2013-03-16 16:59:00,
2013-03-16 11:09:00,43.2,28.6,29.82,North,3,3.0,8.0,56,0.00,,---,0.00,VWS V14.00,2013-03-16 17:09:00,
2013-03-16 11:14:00,42.9,28.3,29.83,North,354,1.0,8.0,56,0.00,,---,0.00,VWS V14.00,2013-03-16 17:14:00,
2013-03-16 11:19:00,43.2,28.6,29.83,North,359,3.0,7.0,56,0.00,,---,0.00,VWS V14.00,2013-03-16 17:19:00,
2013-03-16 11:29:00,43.6,28.5,29.81,North,1,0.0,8.0,55,0.00,,---,0.00,VWS V14.00,2013-03-16 17:29:00,
2013-03-16 11:34:00,43.5,28.0,29.81,North,10,2.0,8.0,54,0.00,,---,0.00,VWS V14.00,2013-03-16 17:34:00,
2013-03-16 11:39:00,43.6,28.1,29.81,North,1,1.0,11.0,54,0.00,,---,0.00,VWS V14.00,2013-03-16 17:39:00,
2013-03-16 11:49:00,44.2,28.6,29.80,North,0,2.0,6.0,54,0.00,,---,0.00,VWS V14.00,2013-03-16 17:49:00,
2013-03-16 11:59:00,44.6,28.5,29.78,North,353,5.0,5.0,53,0.00,,---,0.00,VWS V14.00,2013-03-16 17:59:00,
2013-03-16 12:09:00,45.7,29.6,29.78,North,0,3.0,6.0,53,0.00,,---,0.00,VWS V14.00,2013-03-16 18:09:00,
2013-03-16 12:14:00,46.0,29.8,29.71,NW,309,1.0,7.0,53,0.00,,---,0.00,VWS V14.00,2013-03-16 18:14:00,
2013-03-16 12:19:00,46.1,29.5,29.71,North,359,1.0,3.0,52,0.00,,---,0.00,VWS V14.00,2013-03-16 18:19:00,
2013-03-16 12:24:00,46.2,29.1,29.71,NNE,30,4.0,4.0,51,0.00,,---,0.00,VWS V14.00,2013-03-16 18:24:00,
2013-03-16 12:29:00,46.5,29.4,29.69,North,0,2.0,5.0,51,0.00,,---,0.00,VWS V14.00,2013-03-16 18:29:00,
2013-03-16 12:34:00,46.1,28.5,29.69,North,0,1.0,5.0,50,0.00,,---,0.00,VWS V14.00,2013-03-16 18:34:00,
2013-03-16 12:39:00,46.1,29.0,29.69,North,8,1.0,3.0,51,0.00,,---,0.00,VWS V14.00,2013-03-16 18:39:00,
2013-03-16 12:44:00,45.8,29.2,29.69,North,0,1.0,5.0,52,0.00,,---,0.00,VWS V14.00,2013-03-16 18:44:00,
2013-03-16 12:49:00,45.5,28.9,29.69,North,357,0.0,6.0,52,0.00,,---,0.00,VWS V14.00,2013-03-16 18:49:00,
2013-03-16 12:54:00,46.0,29.4,29.69,NNE,25,0.0,4.0,52,0.00,,---,0.00,VWS V14.00,2013-03-16 18:54:00,
2013-03-16 12:59:00,46.5,29.8,29.69,WNW,299,0.0,2.0,52,0.00,,---,0.00,VWS V14.00,2013-03-16 18:59:00,
2013-03-16 13:04:00,46.8,29.6,29.69,NW,305,1.0,2.0,51,0.00,,---,0.00,VWS V14.00,2013-03-16 19:04:00,
2013-03-16 13:09:00,46.5,29.4,29.69,NW,312,1.0,3.0,51,0.00,,---,0.00,VWS V14.00,2013-03-16 19:09:00,
2013-03-16 13:14:00,46.7,29.5,29.66,NNE,16,1.0,3.0,51,0.00,,---,0.00,VWS V14.00,2013-03-16 19:14:00,
2013-03-16 13:24:00,47.7,30.5,29.66,North,6,0.0,3.0,51,0.00,,---,0.00,VWS V14.00,2013-03-16 19:24:00,
2013-03-16 13:29:00,47.3,30.1,29.66,North,0,5.0,5.0,51,0.00,,---,0.00,VWS V14.00,2013-03-16 19:29:00,
2013-03-16 13:34:00,46.8,29.6,29.66,North,359,2.0,6.0,51,0.00,,---,0.00,VWS V14.00,2013-03-16 19:34:00,
2013-03-16 13:44:00,47.0,29.8,29.64,North,0,0.0,4.0,51,0.00,,---,0.00,VWS V14.00,2013-03-16 19:44:00,
2013-03-16 13:49:00,47.7,30.5,29.64,North,3,2.0,3.0,51,0.00,,---,0.00,VWS V14.00,2013-03-16 19:49:00,
2013-03-16 13:54:00,47.9,30.2,29.64,North,0,0.0,5.0,50,0.00,,---,0.00,VWS V14.00,2013-03-16 19:54:00,
2013-03-16 13:59:00,47.9,30.2,29.63,North,0,0.0,2.0,50,0.00,,---,0.00,VWS V14.00,2013-03-16 19:59:00,
2013-03-16 14:04:00,47.9,30.2,29.63,North,0,0.0,2.0,50,0.00,,---,0.00,VWS V14.00,2013-03-16 20:04:00,
2013-03-16 14:14:00,48.2,30.0,29.63,North,0,1.0,5.0,49,0.00,,---,0.00,VWS V14.00,2013-03-16 20:14:00,
2013-03-16 14:19:00,48.6,30.8,29.63,North,354,0.0,3.0,50,0.00,,---,0.00,VWS V14.00,2013-03-16 20:19:00,
2013-03-16 14:24:00,48.9,30.6,29.63,North,4,2.0,5.0,49,0.00,,---,0.00,VWS V14.00,2013-03-16 20:24:00,
2013-03-16 14:29:00,48.8,30.0,29.62,North,0,0.0,3.0,48,0.00,,---,0.00,VWS V14.00,2013-03-16 20:29:00,
2013-03-16 14:34:00,49.1,30.8,29.62,North,0,0.0,1.0,49,0.00,,---,0.00,VWS V14.00,2013-03-16 20:34:00,
2013-03-16 14:39:00,48.9,30.6,29.62,North,0,1.0,2.0,49,0.00,,---,0.00,VWS V14.00,2013-03-16 20:39:00,
2013-03-16 14:44:00,48.6,30.3,29.60,North,0,0.0,1.0,49,0.00,,---,0.00,VWS V14.00,2013-03-16 20:44:00,
2013-03-16 14:49:00,48.9,29.6,29.60,North,0,1.0,2.0,47,0.00,,---,0.00,VWS V14.00,2013-03-16 20:49:00,
2013-03-16 14:54:00,49.4,31.1,29.60,North,10,1.0,1.0,49,0.00,,---,0.00,VWS V14.00,2013-03-16 20:54:00,
2013-03-16 15:04:00,48.9,30.6,29.59,North,6,0.0,2.0,49,0.00,,---,0.00,VWS V14.00,2013-03-16 21:04:00,
2013-03-16 15:09:00,49.8,30.9,29.59,North,6,0.0,0.0,48,0.00,,---,0.00,VWS V14.00,2013-03-16 21:09:00,
2013-03-16 15:14:00,49.8,30.9,29.64,North,6,0.0,0.0,48,0.00,,---,0.00,VWS V14.00,2013-03-16 21:14:00,
2013-03-16 15:19:00,49.4,30.0,29.64,North,6,0.0,1.0,47,0.00,,---,0.00,VWS V14.00,2013-03-16 21:19:00,
2013-03-16 15:29:00,49.9,31.5,29.63,WSW,237,0.0,2.0,49,0.00,,---,0.00,VWS V14.00,2013-03-16 21:29:00,
2013-03-16 15:34:00,49.5,30.6,29.63,WSW,237,0.0,0.0,48,0.00,,---,0.00,VWS V14.00,2013-03-16 21:34:00,
2013-03-16 15:39:00,49.5,29.6,29.63,WSW,237,0.0,0.0,46,0.00,,---,0.00,VWS V14.00,2013-03-16 21:39:00,
2013-03-16 15:49:00,49.5,30.6,29.62,WSW,237,0.0,0.0,48,0.00,,---,0.00,VWS V14.00,2013-03-16 21:49:00,
2013-03-16 15:59:00,48.6,29.8,29.62,WSW,237,0.0,0.0,48,0.00,,---,0.00,VWS V14.00,2013-03-16 21:59:00,
2013-03-16 16:04:00,48.9,30.1,29.62,WSW,239,0.0,1.0,48,0.00,,---,0.00,VWS V14.00,2013-03-16 22:04:00,
2013-03-16 16:09:00,49.2,30.4,29.62,North,0,0.0,2.0,48,0.00,,---,0.00,VWS V14.00,2013-03-16 22:09:00,
2013-03-16 16:14:00,49.4,30.5,29.63,North,0,0.0,0.0,48,0.00,,---,0.00,VWS V14.00,2013-03-16 22:14:00,
2013-03-16 16:19:00,49.6,30.7,29.63,North,8,2.0,2.0,48,0.00,,---,0.00,VWS V14.00,2013-03-16 22:19:00,
2013-03-16 16:24:00,50.1,31.2,29.63,North,10,0.0,3.0,48,0.00,,---,0.00,VWS V14.00,2013-03-16 22:24:00,
2013-03-16 16:29:00,50.2,31.3,29.62,NNE,14,0.0,3.0,48,0.00,,---,0.00,VWS V14.00,2013-03-16 22:29:00,
2013-03-16 16:34:00,50.1,30.7,29.62,NNE,16,0.0,2.0,47,0.00,,---,0.00,VWS V14.00,2013-03-16 22:34:00,
2013-03-16 16:39:00,50.5,31.0,29.62,NNE,18,1.0,3.0,47,0.00,,---,0.00,VWS V14.00,2013-03-16 22:39:00,
2013-03-16 16:44:00,51.1,31.1,29.60,NNE,18,0.0,3.0,46,0.00,,---,0.00,VWS V14.00,2013-03-16 22:44:00,
2013-03-16 16:49:00,51.3,31.8,29.60,NNE,17,0.0,3.0,47,0.00,,---,0.00,VWS V14.00,2013-03-16 22:49:00,
2013-03-16 16:54:00,50.8,30.8,29.60,North,0,2.0,5.0,46,0.00,,---,0.00,VWS V14.00,2013-03-16 22:54:00,
2013-03-16 16:59:00,50.1,30.7,29.63,North,356,1.0,5.0,47,0.00,,---,0.00,VWS V14.00,2013-03-16 22:59:00,
2013-03-16 17:04:00,49.9,30.5,29.63,North,0,1.0,3.0,47,0.00,,---,0.00,VWS V14.00,2013-03-16 23:04:00,
2013-03-16 17:09:00,50.5,31.0,29.63,North,0,2.0,3.0,47,0.00,,---,0.00,VWS V14.00,2013-03-16 23:09:00,
2013-03-16 17:14:00,51.1,30.5,29.64,NNE,14,5.0,8.0,45,0.00,,---,0.00,VWS V14.00,2013-03-16 23:14:00,
2013-03-16 17:19:00,51.6,31.0,29.64,NNE,21,3.0,6.0,45,0.00,,---,0.00,VWS V14.00,2013-03-16 23:19:00,
2013-03-16 17:24:00,51.3,30.7,29.64,North,8,2.0,8.0,45,0.00,,---,0.00,VWS V14.00,2013-03-16 23:24:00,
2013-03-16 17:29:00,50.7,29.6,29.64,North,0,1.0,8.0,44,0.00,,---,0.00,VWS V14.00,2013-03-16 23:29:00,
2013-03-16 17:34:00,50.4,29.9,29.64,North,350,0.0,6.0,45,0.00,,---,0.00,VWS V14.00,2013-03-16 23:34:00,
2013-03-16 17:39:00,50.4,29.9,29.64,North,352,1.0,3.0,45,0.00,,---,0.00,VWS V14.00,2013-03-16 23:39:00,
2013-03-16 17:44:00,50.5,30.5,29.64,North,353,2.0,3.0,46,0.00,,---,0.00,VWS V14.00,2013-03-16 23:44:00,
2013-03-16 17:49:00,50.4,30.4,29.64,North,356,0.0,2.0,46,0.00,,---,0.00,VWS V14.00,2013-03-16 23:49:00,
2013-03-16 17:54:00,50.1,30.1,29.64,North,0,2.0,6.0,46,0.00,,---,0.00,VWS V14.00,2013-03-16 23:54:00,
2013-03-16 17:59:00,49.9,30.5,29.64,North,0,1.0,3.0,47,0.00,,---,0.00,VWS V14.00,2013-03-16 23:59:00,
2013-03-16 18:04:00,50.1,30.7,29.64,North,359,0.0,2.0,47,0.00,,---,0.00,VWS V14.00,2013-03-17 00:04:00,
2013-03-16 18:09:00,50.1,30.7,29.64,North,354,0.0,2.0,47,0.00,,---,0.00,VWS V14.00,2013-03-17 00:09:00,
2013-03-16 18:14:00,50.1,30.7,29.66,North,0,0.0,2.0,47,0.00,,---,0.00,VWS V14.00,2013-03-17 00:14:00,
2013-03-16 18:19:00,49.6,30.2,29.66,North,0,0.0,0.0,47,0.00,,---,0.00,VWS V14.00,2013-03-17 00:19:00,
2013-03-16 18:24:00,49.4,30.0,29.66,North,0,0.0,0.0,47,0.00,,---,0.00,VWS V14.00,2013-03-17 00:24:00,
2013-03-16 18:29:00,49.2,30.4,29.66,North,0,0.0,0.0,48,0.00,,---,0.00,VWS V14.00,2013-03-17 00:29:00,
2013-03-16 18:39:00,47.6,30.4,29.66,North,0,0.0,0.0,51,0.00,,---,0.00,VWS V14.00,2013-03-17 00:39:00,
2013-03-16 18:44:00,47.9,30.7,29.67,North,0,0.0,0.0,51,0.00,,---,0.00,VWS V14.00,2013-03-17 00:44:00,
2013-03-16 18:54:00,46.5,31.2,29.67,North,0,0.0,0.0,55,0.00,,---,0.00,VWS V14.00,2013-03-17 00:54:00,
2013-03-16 18:59:00,46.4,30.2,29.67,North,0,0.0,0.0,53,0.00,,---,0.00,VWS V14.00,2013-03-17 00:59:00,
2013-03-16 19:04:00,45.4,31.1,29.67,North,0,0.0,0.0,57,0.00,,---,0.00,VWS V14.00,2013-03-17 01:04:00,
2013-03-16 19:09:00,44.8,30.5,29.67,North,0,0.0,0.0,57,0.00,,---,0.00,VWS V14.00,2013-03-17 01:09:00,
2013-03-16 19:19:00,44.9,31.5,29.71,North,0,0.0,0.0,59,0.00,,---,0.00,VWS V14.00,2013-03-17 01:19:00,
2013-03-16 19:24:00,44.2,31.6,29.71,North,0,0.0,0.0,61,0.00,,---,0.00,VWS V14.00,2013-03-17 01:24:00,
2013-03-16 19:29:00,43.8,31.2,29.71,North,0,0.0,0.0,61,0.00,,---,0.00,VWS V14.00,2013-03-17 01:29:00,
2013-03-16 19:34:00,43.8,31.6,29.71,North,0,0.0,0.0,62,0.00,,---,0.00,VWS V14.00,2013-03-17 01:34:00,
2013-03-16 19:39:00,43.6,31.5,29.71,North,0,0.0,0.0,62,0.00,,---,0.00,VWS V14.00,2013-03-17 01:39:00,
2013-03-16 19:44:00,42.5,30.8,29.71,North,0,0.0,0.0,63,0.00,,---,0.00,VWS V14.00,2013-03-17 01:44:00,
2013-03-16 19:49:00,42.2,31.3,29.71,North,0,0.0,0.0,65,0.00,,---,0.00,VWS V14.00,2013-03-17 01:49:00,
2013-03-16 19:59:00,41.5,31.4,29.73,North,0,0.0,0.0,67,0.00,,---,0.00,VWS V14.00,2013-03-17 01:59:00,
2013-03-16 20:04:00,41.2,31.1,29.73,North,0,0.0,0.0,67,0.00,,---,0.00,VWS V14.00,2013-03-17 02:04:00,
2013-03-16 20:09:00,41.2,31.5,29.73,North,0,0.0,0.0,68,0.00,,---,0.00,VWS V14.00,2013-03-17 02:09:00,
2013-03-16 20:19:00,40.6,30.9,29.72,North,0,0.0,0.0,68,0.00,,---,0.00,VWS V14.00,2013-03-17 02:19:00,
2013-03-16 20:29:00,40.2,30.5,29.73,North,359,0.0,0.0,68,0.00,,---,0.00,VWS V14.00,2013-03-17 02:29:00,
2013-03-16 20:34:00,39.8,30.1,29.73,North,359,0.0,0.0,68,0.00,,---,0.00,VWS V14.00,2013-03-17 02:34:00,
2013-03-16 20:44:00,39.9,30.9,29.73,WNW,287,0.0,2.0,70,0.00,,---,0.00,VWS V14.00,2013-03-17 02:44:00,
2013-03-16 20:54:00,41.5,31.7,29.73,SW,232,0.0,3.0,68,0.00,,---,0.00,VWS V14.00,2013-03-17 02:54:00,
2013-03-16 20:59:00,40.5,30.4,29.72,SW,232,0.0,0.0,67,0.00,,---,0.00,VWS V14.00,2013-03-17 02:59:00,
2013-03-16 21:05:00,36.6,29.1,29.74,SW,232,0.0,0.0,74,0.00,,---,0.00,VWS V14.00,2013-03-17 03:05:00,
2013-03-16 21:09:00,38.6,29.7,29.72,SW,232,0.0,0.0,70,0.00,,---,0.00,VWS V14.00,2013-03-17 03:09:00,
2013-03-16 21:10:00,36.2,28.7,29.74,SW,232,0.0,0.0,74,0.00,,---,0.00,VWS V14.00,2013-03-17 03:10:00,
2013-03-16 21:14:00,38.5,29.9,29.73,SW,232,0.0,0.0,71,0.00,,---,0.00,VWS V14.00,2013-03-17 03:14:00,
2013-03-16 21:15:00,35.5,28.0,29.73,SW,232,0.0,0.0,74,0.00,,---,0.00,VWS V14.00,2013-03-17 03:15:00,
2013-03-16 21:19:00,39.1,30.5,29.73,SW,232,0.0,0.0,71,0.00,,---,0.00,VWS V14.00,2013-03-17 03:19:00,
2013-03-16 21:20:00,35.3,28.5,29.73,SW,232,0.0,0.0,76,0.00,,---,0.00,VWS V14.00,2013-03-17 03:20:00,
2013-03-16 21:25:00,35.5,29.0,29.73,SW,232,0.0,0.0,77,0.00,,---,0.00,VWS V14.00,2013-03-17 03:25:00,
2013-03-16 21:29:00,38.8,30.2,29.72,SW,232,0.0,0.0,71,0.00,,---,0.00,VWS V14.00,2013-03-17 03:29:00,
2013-03-16 21:30:00,35.5,29.3,29.73,SW,232,0.0,0.0,78,0.00,,---,0.00,VWS V14.00,2013-03-17 03:30:00,
2013-03-16 21:34:00,39.1,30.5,29.72,SW,232,0.0,0.0,71,0.00,,---,0.00,VWS V14.00,2013-03-17 03:34:00,
2013-03-16 21:35:00,35.8,29.3,29.73,SW,232,0.0,0.0,77,0.00,,---,0.00,VWS V14.00,2013-03-17 03:35:00,
2013-03-16 21:39:00,38.9,30.0,29.72,SW,232,0.0,0.0,70,0.00,,---,0.00,VWS V14.00,2013-03-17 03:39:00,
2013-03-16 21:40:00,35.0,28.9,29.73,SW,232,0.0,0.0,78,0.00,,---,0.00,VWS V14.00,2013-03-17 03:40:00,
2013-03-16 21:45:00,33.7,27.6,29.73,SW,232,0.0,0.0,78,0.00,,---,0.00,VWS V14.00,2013-03-17 03:45:00,
2013-03-16 21:49:00,38.2,29.3,29.73,SW,232,0.0,0.0,70,0.00,,---,0.00,VWS V14.00,2013-03-17 03:49:00,
2013-03-16 21:50:00,34.6,28.8,29.73,SW,232,0.0,0.0,79,0.00,,---,0.00,VWS V14.00,2013-03-17 03:50:00,
2013-03-16 21:55:00,34.4,28.6,29.73,SW,232,0.0,0.0,79,0.00,,---,0.00,VWS V14.00,2013-03-17 03:55:00,
2013-03-16 21:59:00,36.9,29.1,29.74,SW,232,0.0,0.0,73,0.00,,---,0.00,VWS V14.00,2013-03-17 03:59:00,
2013-03-16 22:00:00,33.8,27.7,29.73,SW,232,0.0,0.0,78,0.00,,---,0.00,VWS V14.00,2013-03-17 04:00:00,
2013-03-16 22:05:00,33.2,27.1,29.73,SW,232,0.0,0.0,78,0.00,,---,0.00,VWS V14.00,2013-03-17 04:05:00,
2013-03-16 22:10:00,34.0,28.5,29.73,SW,232,0.0,0.0,80,0.00,,---,0.00,VWS V14.00,2013-03-17 04:10:00,
2013-03-16 22:15:00,33.2,27.1,29.72,SW,232,0.0,0.0,78,0.00,,---,0.00,VWS V14.00,2013-03-17 04:15:00,
2013-03-16 22:20:00,33.2,27.7,29.72,SW,232,0.0,0.0,80,0.00,,---,0.00,VWS V14.00,2013-03-17 04:20:00,
2013-03-16 22:25:00,33.4,27.9,29.72,SW,232,0.0,0.0,80,0.00,,---,0.00,VWS V14.00,2013-03-17 04:25:00,
2013-03-16 22:30:00,33.2,27.4,29.72,SW,232,0.0,0.0,79,0.00,,---,0.00,VWS V14.00,2013-03-17 04:30:00,
2013-03-16 22:35:00,32.9,27.1,29.72,SW,232,0.0,0.0,79,0.00,,---,0.00,VWS V14.00,2013-03-17 04:35:00,
2013-03-16 22:40:00,32.7,26.9,29.72,SW,232,0.0,0.0,79,0.00,,---,0.00,VWS V14.00,2013-03-17 04:40:00,
2013-03-16 22:45:00,32.8,27.3,29.71,SW,232,0.0,0.0,80,0.00,,---,0.00,VWS V14.00,2013-03-17 04:45:00,
2013-03-16 22:50:00,31.9,26.1,29.71,SW,232,0.0,0.0,79,0.00,,---,0.00,VWS V14.00,2013-03-17 04:50:00,
2013-03-16 22:55:00,32.5,27.0,29.71,SW,232,0.0,0.0,80,0.00,,---,0.00,VWS V14.00,2013-03-17 04:55:00,
2013-03-16 23:00:00,32.1,26.3,29.72,SW,233,0.0,1.0,79,0.00,,---,0.00,VWS V14.00,2013-03-17 05:00:00,
2013-03-16 23:05:00,31.9,26.1,29.72,SW,233,0.0,1.0,79,0.00,,---,0.00,VWS V14.00,2013-03-17 05:05:00,
2013-03-16 23:10:00,33.5,27.7,29.72,SW,232,0.0,0.0,79,0.00,,---,0.00,VWS V14.00,2013-03-17 05:10:00,
2013-03-16 23:15:00,34.0,27.6,29.69,SW,232,0.0,0.0,77,0.00,,---,0.00,VWS V14.00,2013-03-17 05:15:00,
2013-03-16 23:20:00,34.6,27.5,29.69,SW,232,0.0,0.0,75,0.00,,---,0.00,VWS V14.00,2013-03-17 05:20:00,
2013-03-16 23:25:00,34.9,27.1,29.69,SW,232,0.0,0.0,73,0.00,,---,0.00,VWS V14.00,2013-03-17 05:25:00,
2013-03-16 23:30:00,38.5,29.6,29.65,SW,233,0.0,0.0,70,0.00,,---,0.00,VWS V14.00,2013-03-17 05:30:00,
2013-03-16 23:35:00,36.2,24.8,29.65,SW,233,0.0,0.0,63,0.00,,---,0.00,VWS V14.00,2013-03-17 05:35:00,
2013-03-16 23:40:00,37.2,26.9,29.65,SW,233,0.0,0.0,66,0.00,,---,0.00,VWS V14.00,2013-03-17 05:40:00,
2013-03-16 23:45:00,37.0,26.3,29.65,SW,232,0.0,1.0,65,0.00,,---,0.00,VWS V14.00,2013-03-17 05:45:00,
2013-03-16 23:50:00,38.0,28.0,29.65,SW,232,0.0,1.0,67,0.00,,---,0.00,VWS V14.00,2013-03-17 05:50:00,
2013-03-16 23:55:00,38.5,26.6,29.65,SW,233,0.0,0.0,62,0.00,,---,0.00,VWS V14.00,2013-03-17 05:55:00,